createdAt,value
2019-01-04T00:00:18.984Z,32.53
2019-01-04T00:02:46.556Z,33.83
2019-01-04T00:05:14.133Z,26.77
2019-01-04T00:07:41.675Z,24.33
2019-01-04T00:10:09.256Z,25.30
2019-01-04T00:12:36.799Z,20.50
2019-01-04T00:15:04.369Z,25.87
2019-01-04T00:17:31.908Z,30.73
2019-01-04T00:19:59.471Z,27.17
2019-01-04T00:22:27.939Z,27.13
2019-01-04T00:24:55.500Z,27.80
2019-01-04T00:27:23.059Z,31.73
2019-01-04T00:29:50.655Z,24.63
2019-01-04T00:32:18.191Z,23.07
2019-01-04T00:34:45.789Z,23.00
2019-01-04T00:37:13.332Z,21.93
2019-01-04T00:39:40.900Z,24.20
2019-01-04T00:42:08.471Z,28.50
2019-01-04T00:44:36.009Z,28.43
2019-01-04T00:47:03.590Z,21.90
2019-01-04T00:49:31.132Z,27.60
2019-01-04T00:51:58.812Z,23.83
2019-01-04T00:54:27.360Z,28.20
2019-01-04T00:57:03.560Z,27.00
2019-01-04T00:59:38.951Z,29.17
2019-01-04T01:02:11.098Z,28.30
2019-01-04T01:07:49.749Z,26.92
2019-01-04T01:16:32.116Z,33.40
2019-01-04T01:19:06.608Z,69.70
2019-01-04T01:21:39.916Z,35.20
2019-01-04T01:27:14.288Z,28.50
2019-01-04T01:29:53.655Z,24.70
2019-01-04T01:32:33.023Z,31.73
2019-01-04T01:35:08.229Z,28.93
2019-01-04T01:38:00.315Z,38.07
2019-01-04T01:40:37.585Z,26.53
2019-01-04T01:43:17.111Z,27.27
2019-01-04T01:48:50.773Z,29.15
2019-01-04T01:51:28.204Z,32.17
2019-01-04T01:53:56.515Z,41.97
2019-01-04T01:56:24.084Z,28.63
2019-01-04T01:58:51.624Z,29.57
2019-01-04T02:01:19.191Z,30.87
2019-01-04T02:03:46.743Z,22.60
2019-01-04T02:06:14.311Z,18.57
2019-01-04T02:08:41.863Z,26.27
2019-01-04T02:11:09.423Z,35.50
2019-01-04T02:13:36.994Z,38.83
2019-01-04T02:16:04.536Z,31.70
2019-01-04T02:18:32.103Z,29.87
2019-01-04T02:20:59.648Z,23.20
2019-01-04T02:23:28.216Z,28.43
2019-01-04T02:25:55.784Z,23.43
2019-01-04T02:28:23.445Z,23.73
2019-01-04T02:30:50.995Z,30.37
2019-01-04T02:33:18.568Z,26.53
2019-01-04T02:35:46.109Z,21.33
2019-01-04T02:38:13.677Z,33.90
2019-01-04T02:40:41.234Z,28.23
2019-01-04T02:43:08.804Z,34.57
2019-01-04T02:45:36.353Z,28.27
2019-01-04T02:48:03.891Z,28.30
2019-01-04T02:50:31.768Z,25.17
2019-01-04T02:52:59.312Z,27.10
2019-01-04T02:55:26.887Z,30.13
2019-01-04T02:57:54.455Z,24.53
2019-01-04T03:00:21.999Z,25.53
2019-01-04T03:02:49.573Z,24.93
2019-01-04T03:05:17.125Z,25.00
2019-01-04T03:07:44.697Z,34.07
2019-01-04T03:10:12.404Z,31.15
2019-01-04T03:12:39.975Z,24.10
2019-01-04T03:15:08.503Z,19.30
2019-01-04T03:17:36.059Z,22.20
2019-01-04T03:20:03.626Z,25.70
2019-01-04T03:22:31.197Z,21.37
2019-01-04T03:24:58.768Z,36.57
2019-01-04T03:27:26.311Z,21.97
2019-01-04T03:29:55.603Z,21.13
2019-01-04T03:32:23.155Z,22.30
2019-01-04T03:34:50.728Z,26.00
2019-01-04T03:37:18.268Z,31.80
2019-01-04T03:39:45.832Z,27.73
2019-01-04T03:42:13.371Z,25.17
2019-01-04T03:44:40.935Z,27.80
2019-01-04T03:47:08.503Z,34.53
2019-01-04T03:49:36.075Z,21.93
2019-01-04T03:52:03.613Z,30.37
2019-01-04T03:54:31.188Z,29.83
2019-01-04T03:56:58.758Z,26.67
2019-01-04T03:59:26.311Z,39.93
2019-01-04T04:01:54.643Z,31.40
2019-01-04T04:04:22.223Z,34.80
2019-01-04T04:06:49.800Z,27.87
2019-01-04T04:09:17.390Z,24.07
2019-01-04T04:11:44.969Z,19.67
2019-01-04T04:14:12.518Z,29.97
2019-01-04T04:16:41.057Z,39.53
2019-01-04T04:19:08.611Z,23.77
2019-01-04T04:21:36.197Z,28.57
2019-01-04T04:24:03.749Z,26.43
2019-01-04T04:26:31.333Z,24.73
2019-01-04T04:28:58.879Z,30.00
2019-01-04T04:31:26.433Z,24.73
2019-01-04T04:33:54.010Z,26.43
2019-01-04T04:36:21.583Z,18.30
2019-01-04T04:38:49.160Z,24.60
2019-01-04T04:41:16.722Z,25.50
2019-01-04T04:43:45.068Z,31.23
2019-01-04T04:46:12.646Z,27.93
2019-01-04T04:48:40.228Z,23.03
2019-01-04T04:51:07.782Z,25.17
2019-01-04T04:53:36.050Z,25.17
2019-01-04T04:56:02.997Z,25.30
2019-01-04T04:58:30.579Z,18.10
2019-01-04T05:00:59.136Z,24.10
2019-01-04T05:03:27.449Z,32.03
2019-01-04T05:05:55.030Z,22.97
2019-01-04T05:08:22.592Z,22.13
2019-01-04T05:10:50.172Z,26.20
2019-01-04T05:13:19.500Z,21.03
2019-01-04T05:15:47.044Z,24.00
2019-01-04T05:18:14.732Z,25.17
2019-01-04T05:20:42.404Z,21.60
2019-01-04T05:23:09.986Z,23.53
2019-01-04T05:25:37.557Z,19.97
2019-01-04T05:28:05.145Z,19.13
2019-01-04T05:30:32.723Z,24.80
2019-01-04T05:33:00.297Z,23.07
2019-01-04T05:35:27.847Z,22.07
2019-01-04T05:37:55.512Z,22.97
2019-01-04T05:40:23.069Z,29.30
2019-01-04T05:42:50.645Z,26.40
2019-01-04T05:45:18.192Z,23.00
2019-01-04T05:47:45.777Z,29.60
2019-01-04T05:50:13.335Z,23.37
2019-01-04T05:52:41.896Z,25.77
2019-01-04T05:55:09.442Z,22.37
2019-01-04T05:57:37.085Z,23.03
2019-01-04T06:00:04.657Z,24.03
2019-01-04T06:02:32.236Z,22.30
2019-01-04T06:04:59.781Z,22.70
2019-01-04T06:07:27.365Z,18.00
2019-01-04T06:09:54.938Z,22.50
2019-01-04T06:12:23.257Z,26.83
2019-01-04T06:14:50.835Z,18.63
2019-01-04T06:17:18.388Z,25.73
2019-01-04T06:19:45.966Z,25.30
2019-01-04T06:22:13.513Z,26.30
2019-01-04T06:24:41.097Z,28.30
2019-01-04T06:27:08.644Z,27.70
2019-01-04T06:29:36.990Z,40.97
2019-01-04T06:32:04.546Z,26.43
2019-01-04T06:34:32.119Z,22.80
2019-01-04T06:36:59.672Z,23.97
2019-01-04T06:39:27.247Z,32.63
2019-01-04T06:41:54.820Z,25.33
2019-01-04T06:44:23.413Z,27.53
2019-01-04T06:47:02.793Z,20.60
2019-01-04T06:49:30.368Z,24.37
2019-01-04T06:51:57.949Z,24.00
2019-01-04T06:57:29.285Z,24.55
2019-01-04T06:59:57.198Z,30.20
2019-01-04T07:02:25.762Z,32.73
2019-01-04T07:04:53.343Z,25.83
2019-01-04T07:07:20.892Z,25.47
2019-01-04T07:09:49.473Z,26.57
2019-01-04T07:12:17.017Z,31.13
2019-01-04T07:14:45.548Z,23.80
2019-01-04T07:17:13.097Z,20.07
2019-01-04T07:19:40.685Z,21.30
2019-01-04T07:22:08.232Z,27.87
2019-01-04T07:24:35.817Z,22.43
2019-01-04T07:27:03.370Z,25.53
2019-01-04T07:29:30.945Z,26.30
2019-01-04T07:31:59.260Z,19.70
2019-01-04T07:34:26.842Z,25.23
2019-01-04T07:36:54.418Z,22.93
2019-01-04T07:39:22.956Z,25.80
2019-01-04T07:41:50.511Z,30.57
2019-01-04T07:44:18.116Z,28.10
2019-01-04T07:46:45.696Z,21.97
2019-01-04T07:49:13.273Z,22.60
2019-01-04T07:51:40.833Z,29.77
2019-01-04T07:54:08.379Z,22.50
2019-01-04T07:56:35.952Z,38.27
2019-01-04T07:59:03.504Z,44.07
2019-01-04T08:01:31.092Z,106.30
2019-01-04T08:03:58.657Z,71.87
2019-01-04T08:06:26.224Z,63.40
2019-01-04T08:08:53.776Z,73.27
2019-01-04T08:11:21.352Z,42.67
2019-01-04T08:13:49.672Z,38.13
2019-01-04T08:16:17.252Z,48.10
2019-01-04T08:18:44.797Z,51.83
2019-01-04T08:21:12.368Z,35.67
2019-01-04T08:23:39.912Z,26.00
2019-01-04T08:26:07.492Z,20.83
2019-01-04T08:28:35.073Z,24.60
2019-01-04T08:31:03.385Z,33.67
2019-01-04T08:33:31.956Z,33.10
2019-01-04T08:35:59.545Z,26.93
2019-01-04T08:38:27.154Z,26.47
2019-01-04T08:40:54.709Z,36.50
2019-01-04T08:43:22.287Z,28.50
2019-01-04T08:45:49.841Z,22.10
2019-01-04T08:48:17.413Z,24.87
2019-01-04T08:50:44.963Z,27.37
2019-01-04T08:53:12.642Z,25.00
2019-01-04T08:55:40.193Z,22.90
2019-01-04T08:58:07.771Z,21.20
2019-01-04T09:00:35.347Z,22.03
2019-01-04T09:03:02.920Z,22.10
2019-01-04T09:05:30.464Z,26.07
2019-01-04T09:07:58.041Z,28.93
2019-01-04T09:10:26.461Z,26.90
2019-01-04T09:12:54.033Z,24.37
2019-01-04T09:15:21.589Z,21.57
2019-01-04T09:17:49.168Z,28.63
2019-01-04T09:20:16.739Z,27.90
2019-01-04T09:22:44.288Z,25.03
2019-01-04T09:25:12.588Z,25.15
2019-01-04T09:27:40.160Z,27.70
2019-01-04T09:30:07.705Z,26.50
2019-01-04T09:32:35.294Z,20.67
2019-01-04T09:35:02.837Z,22.53
2019-01-04T09:37:31.380Z,15.30
2019-01-04T09:39:58.941Z,23.57
2019-01-04T09:42:26.517Z,17.47
2019-01-04T09:44:54.058Z,17.10
2019-01-04T09:47:21.632Z,100.13
2019-01-04T09:49:49.972Z,48.00
2019-01-04T09:52:17.513Z,30.87
2019-01-04T09:54:45.084Z,47.83
2019-01-04T09:57:12.669Z,32.87
2019-01-04T09:59:42.024Z,28.93
2019-01-04T10:02:09.564Z,45.93
2019-01-04T10:04:37.147Z,27.80
2019-01-04T10:07:04.692Z,23.17
2019-01-04T10:09:32.268Z,13.40
2019-01-04T10:11:59.807Z,12.30
2019-01-04T10:14:27.375Z,14.63
2019-01-04T10:16:54.930Z,16.20
2019-01-04T10:19:22.505Z,20.03
2019-01-04T10:21:50.080Z,10.90
2019-01-04T10:24:17.660Z,23.20
2019-01-04T10:26:45.200Z,12.03
2019-01-04T10:29:13.619Z,17.30
2019-01-04T10:31:41.929Z,17.90
2019-01-04T10:34:09.498Z,21.37
2019-01-04T10:36:37.042Z,21.30
2019-01-04T10:39:04.628Z,17.10
2019-01-04T10:41:32.932Z,15.60
2019-01-04T10:44:00.499Z,15.00
2019-01-04T10:46:28.048Z,16.80
2019-01-04T10:48:55.615Z,16.77
2019-01-04T10:51:23.203Z,19.53
2019-01-04T10:53:50.768Z,17.27
2019-01-04T10:56:18.351Z,15.53
2019-01-04T10:58:47.687Z,20.30
2019-01-04T11:01:15.351Z,19.27
2019-01-04T11:03:43.184Z,18.57
2019-01-04T11:06:10.737Z,21.27
2019-01-04T11:08:38.280Z,16.50
2019-01-04T11:11:05.858Z,16.50
2019-01-04T11:13:33.408Z,20.40
2019-01-04T11:16:00.977Z,26.13
2019-01-04T11:18:28.544Z,20.93
2019-01-04T11:20:56.083Z,29.23
2019-01-04T11:26:27.901Z,24.48
2019-01-04T11:29:02.045Z,29.63
2019-01-04T11:31:35.192Z,24.30
2019-01-04T11:34:18.647Z,25.63
2019-01-04T11:36:54.831Z,25.93
2019-01-04T11:39:24.009Z,18.90
2019-01-04T11:41:55.444Z,21.67
2019-01-04T11:44:42.563Z,63.03
2019-01-04T11:47:12.732Z,68.83
2019-01-04T11:50:04.022Z,28.20
2019-01-04T11:52:32.472Z,29.03
2019-01-04T11:55:00.047Z,23.77
2019-01-04T11:57:27.588Z,23.63
2019-01-04T11:59:55.155Z,19.30
2019-01-04T12:02:26.323Z,17.77
2019-01-04T12:04:50.357Z,23.57
2019-01-04T12:07:17.923Z,21.33
2019-01-04T12:09:53.431Z,22.70
2019-01-04T12:12:22.011Z,19.27
2019-01-04T12:14:49.604Z,26.03
2019-01-04T12:17:17.150Z,25.13
2019-01-04T12:19:44.687Z,24.67
2019-01-04T12:22:12.261Z,17.73
2019-01-04T12:24:39.800Z,20.00
2019-01-04T12:27:07.377Z,25.07
2019-01-04T12:29:34.915Z,31.17
2019-01-04T12:32:02.500Z,24.80
2019-01-04T12:34:30.050Z,30.40
2019-01-04T12:36:57.625Z,21.83
2019-01-04T12:39:25.167Z,28.00
2019-01-04T12:41:52.722Z,28.37
2019-01-04T12:44:20.288Z,29.23
2019-01-04T12:46:47.872Z,23.20
2019-01-04T12:49:15.443Z,29.53
2019-01-04T12:51:43.765Z,36.90
2019-01-04T12:54:11.343Z,27.50
2019-01-04T12:56:38.928Z,23.33
2019-01-04T12:59:06.501Z,31.20
2019-01-04T13:01:34.288Z,24.20
2019-01-04T13:04:01.825Z,26.13
2019-01-04T13:06:29.405Z,28.10
2019-01-04T13:08:56.944Z,24.40
2019-01-04T13:11:25.476Z,27.90
2019-01-04T13:13:53.024Z,23.93
2019-01-04T13:16:20.603Z,21.87
2019-01-04T13:18:48.289Z,26.80
2019-01-04T13:21:15.856Z,20.43
2019-01-04T13:23:43.426Z,26.60
2019-01-04T13:26:11.005Z,27.30
2019-01-04T13:28:38.572Z,23.67
2019-01-04T13:31:06.136Z,24.73
2019-01-04T13:33:33.700Z,29.57
2019-01-04T13:36:01.244Z,26.70
2019-01-04T13:38:28.808Z,23.33
2019-01-04T13:40:56.375Z,21.67
2019-01-04T13:43:23.916Z,22.40
2019-01-04T13:45:51.489Z,27.40
2019-01-04T13:48:19.036Z,25.10
2019-01-04T13:50:46.608Z,23.63
2019-01-04T13:53:14.183Z,23.73
2019-01-04T13:55:42.494Z,24.87
2019-01-04T13:58:10.056Z,28.73
2019-01-04T14:00:37.637Z,25.10
2019-01-04T14:03:06.182Z,29.67
2019-01-04T14:05:33.835Z,21.50
2019-01-04T14:08:01.401Z,27.80
2019-01-04T14:10:28.948Z,24.77
2019-01-04T14:12:56.524Z,29.77
2019-01-04T14:15:24.065Z,20.27
2019-01-04T14:17:51.640Z,25.57
2019-01-04T14:20:20.120Z,21.50
2019-01-04T14:22:47.672Z,25.80
2019-01-04T14:25:15.254Z,25.30
2019-01-04T14:27:42.829Z,27.37
2019-01-04T14:30:10.412Z,25.50
2019-01-04T14:32:37.962Z,23.57
2019-01-04T14:35:06.496Z,25.70
2019-01-04T14:37:35.041Z,25.03
2019-01-04T14:40:02.601Z,27.77
2019-01-04T14:42:30.178Z,29.57
2019-01-04T14:44:57.720Z,26.70
2019-01-04T14:47:25.288Z,32.73
2019-01-04T14:49:52.837Z,29.87
2019-01-04T14:52:20.514Z,33.03
2019-01-04T14:54:48.091Z,27.67
2019-01-04T14:57:16.644Z,26.97
2019-01-04T14:59:44.189Z,26.40
2019-01-04T15:02:11.768Z,25.67
2019-01-04T15:04:39.321Z,30.37
2019-01-04T15:07:06.902Z,27.60
2019-01-04T15:09:34.469Z,31.80
2019-01-04T15:12:02.017Z,28.87
2019-01-04T15:14:29.585Z,27.00
2019-01-04T15:16:58.052Z,32.77
2019-01-04T15:19:25.633Z,32.60
2019-01-04T15:21:53.188Z,31.53
2019-01-04T15:24:20.762Z,32.27
2019-01-04T15:26:49.068Z,32.73
2019-01-04T15:29:17.641Z,51.53
2019-01-04T15:31:45.219Z,75.20
2019-01-04T15:34:12.763Z,45.33
2019-01-04T15:36:40.336Z,38.47
2019-01-04T15:39:07.896Z,35.50
2019-01-04T15:41:35.463Z,31.07
2019-01-04T15:44:03.037Z,41.20
2019-01-04T15:46:30.585Z,34.67
2019-01-04T15:48:58.152Z,35.13
2019-01-04T15:51:25.705Z,35.30
2019-01-04T15:53:53.273Z,40.23
2019-01-04T15:56:20.818Z,40.50
2019-01-04T15:58:48.401Z,34.73
2019-01-04T16:01:16.009Z,39.97
2019-01-04T16:03:43.552Z,44.53
2019-01-04T16:06:11.130Z,65.13
2019-01-04T16:08:38.677Z,88.47
2019-01-04T16:11:06.255Z,39.97
2019-01-04T16:13:33.825Z,50.70
2019-01-04T16:16:01.395Z,38.83
2019-01-04T16:18:28.946Z,38.70
2019-01-04T16:20:56.524Z,42.23
2019-01-04T16:23:24.948Z,40.47
2019-01-04T16:25:52.499Z,36.10
2019-01-04T16:28:20.048Z,33.23
2019-01-04T16:30:47.621Z,35.47
2019-01-04T16:33:15.164Z,44.80
2019-01-04T16:35:42.747Z,34.47
2019-01-04T16:38:10.316Z,34.53
2019-01-04T16:40:37.868Z,36.73
2019-01-04T16:43:05.443Z,45.77
2019-01-04T16:45:33.017Z,42.70
2019-01-04T16:48:00.558Z,43.60
2019-01-04T16:50:28.128Z,36.93
2019-01-04T16:52:59.471Z,43.40
2019-01-04T16:55:23.296Z,38.83
2019-01-04T16:57:50.868Z,34.33
2019-01-04T17:00:18.413Z,40.23
2019-01-04T17:02:45.965Z,45.00
2019-01-04T17:05:13.544Z,37.80
2019-01-04T17:07:41.099Z,31.50
2019-01-04T17:10:08.675Z,34.47
2019-01-04T17:12:36.230Z,32.03
2019-01-04T17:15:03.812Z,33.50
2019-01-04T17:17:31.361Z,38.67
2019-01-04T17:19:58.926Z,37.30
2019-01-04T17:22:26.473Z,40.47
2019-01-04T17:24:54.060Z,35.77
2019-01-04T17:27:21.604Z,44.80
2019-01-04T17:29:49.178Z,37.60
2019-01-04T17:32:16.749Z,46.53
2019-01-04T17:34:44.326Z,44.07
2019-01-04T17:37:11.869Z,42.63
2019-01-04T17:39:40.427Z,41.40
2019-01-04T17:42:07.995Z,44.17
2019-01-04T17:44:35.575Z,44.13
2019-01-04T17:47:03.116Z,38.70
2019-01-04T17:49:30.697Z,50.63
2019-01-04T17:51:58.244Z,43.23
2019-01-04T17:54:25.824Z,47.47
2019-01-04T17:56:53.560Z,33.70
2019-01-04T17:59:21.128Z,51.07
2019-01-04T18:01:48.700Z,56.80
2019-01-04T18:04:16.256Z,45.33
2019-01-04T18:06:43.838Z,48.80
2019-01-04T18:09:12.177Z,39.97
2019-01-04T18:11:39.754Z,51.27
2019-01-04T18:14:07.328Z,53.13
2019-01-04T18:16:34.880Z,47.60
2019-01-04T18:19:03.228Z,50.93
2019-01-04T18:21:30.808Z,59.07
2019-01-04T18:23:58.389Z,44.37
2019-01-04T18:26:26.199Z,47.63
2019-01-04T18:28:53.740Z,43.83
2019-01-04T18:31:21.317Z,42.57
2019-01-04T18:33:48.868Z,37.50
2019-01-04T18:36:16.443Z,32.93
2019-01-04T18:38:43.991Z,38.80
2019-01-04T18:41:11.592Z,36.07
2019-01-04T18:43:39.382Z,37.83
2019-01-04T18:46:06.932Z,37.20
2019-01-04T18:48:35.484Z,39.40
2019-01-04T18:51:03.068Z,41.03
2019-01-04T18:53:30.645Z,62.37
2019-01-04T18:55:58.200Z,47.07
2019-01-04T18:58:25.789Z,44.10
2019-01-04T19:00:53.359Z,48.20
2019-01-04T19:05:54.680Z,43.17
2019-01-04T19:08:23.208Z,43.07
2019-01-04T19:10:50.749Z,43.40
2019-01-04T19:13:18.323Z,39.53
2019-01-04T19:15:45.875Z,51.77
2019-01-04T19:18:13.448Z,43.53
2019-01-04T19:20:41.025Z,59.73
2019-01-04T19:23:08.600Z,46.73
2019-01-04T19:25:36.150Z,44.13
2019-01-04T19:28:03.720Z,53.57
2019-01-04T19:30:36.096Z,40.83
2019-01-04T19:33:04.696Z,48.03
2019-01-04T19:35:32.247Z,45.57
2019-01-04T19:37:59.820Z,41.13
2019-01-04T19:40:27.451Z,40.30
2019-01-04T19:42:55.032Z,44.63
2019-01-04T19:45:22.646Z,40.47
2019-01-04T19:47:50.199Z,49.20
2019-01-04T19:50:17.781Z,79.70
2019-01-04T19:52:45.333Z,47.70
2019-01-04T19:55:12.907Z,52.80
2019-01-04T19:57:40.458Z,62.80
2019-01-04T20:00:08.066Z,45.70
2019-01-04T20:02:35.624Z,45.50
2019-01-04T20:05:03.195Z,38.77
2019-01-04T20:07:53.156Z,43.00
2019-01-04T20:14:14.958Z,42.38
2019-01-04T20:16:48.225Z,45.03
2019-01-04T20:19:21.347Z,161.70
2019-01-04T20:24:46.031Z,83.95
2019-01-04T20:27:28.453Z,80.37
2019-01-04T20:30:04.516Z,46.13
2019-01-04T20:32:37.704Z,54.30
2019-01-04T20:35:10.957Z,85.67
2019-01-04T20:37:44.040Z,140.20
2019-01-04T20:40:18.838Z,121.43
2019-01-04T20:42:49.007Z,63.83
2019-01-04T20:45:21.474Z,52.50
2019-01-04T20:47:54.765Z,53.73
2019-01-04T20:50:28.045Z,53.80
2019-01-04T20:53:01.202Z,42.90
2019-01-04T20:58:25.575Z,52.10
2019-01-04T21:00:59.644Z,49.50
2019-01-04T21:03:32.893Z,48.50
2019-01-04T21:06:06.152Z,36.73
2019-01-04T21:08:52.504Z,41.23
2019-01-04T21:11:24.087Z,42.70
2019-01-04T21:14:09.417Z,52.10
2019-01-04T21:19:38.068Z,42.42
2019-01-04T21:22:11.205Z,46.27
2019-01-04T21:24:43.371Z,47.37
2019-01-04T21:27:13.446Z,44.07
2019-01-04T21:29:52.940Z,42.30
2019-01-04T21:32:36.236Z,37.80
2019-01-04T21:35:06.301Z,44.47
2019-01-04T21:37:36.461Z,38.67
2019-01-04T21:40:09.120Z,43.83
2019-01-04T21:42:56.509Z,45.40
2019-01-04T21:45:29.307Z,39.50
2019-01-04T21:47:58.359Z,40.90
2019-01-04T21:53:24.854Z,41.33
2019-01-04T21:55:56.168Z,44.33
2019-01-04T21:58:32.149Z,42.03
2019-01-04T22:01:01.596Z,45.83
2019-01-04T22:03:32.590Z,45.53
2019-01-04T22:06:05.814Z,40.33
2019-01-04T22:08:33.392Z,45.33
2019-01-04T22:11:05.519Z,43.90
2019-01-04T22:13:38.787Z,54.13
2019-01-04T22:19:11.316Z,45.65
2019-01-04T22:21:44.540Z,41.70
2019-01-04T22:24:15.776Z,48.47
2019-01-04T22:26:43.329Z,39.57
2019-01-04T22:29:14.590Z,42.67
2019-01-04T22:31:45.944Z,40.83
2019-01-04T22:34:14.112Z,44.37
2019-01-04T22:36:42.519Z,44.10
2019-01-04T22:39:27.747Z,46.60
2019-01-04T22:41:58.232Z,39.13
2019-01-04T22:44:43.584Z,42.67
2019-01-04T22:47:15.616Z,44.60
2019-01-04T22:49:48.058Z,52.73
2019-01-04T22:52:15.636Z,43.93
2019-01-04T22:54:45.673Z,44.03
2019-01-04T22:57:33.056Z,44.20
2019-01-04T23:00:15.508Z,44.83
2019-01-04T23:02:49.671Z,43.50
2019-01-04T23:05:22.764Z,46.27
2019-01-04T23:08:05.224Z,47.80
2019-01-04T23:10:33.279Z,50.77
2019-01-04T23:13:12.688Z,51.43
2019-01-04T23:15:52.902Z,44.80
2019-01-04T23:18:21.356Z,47.97
2019-01-04T23:20:54.520Z,59.60
2019-01-04T23:23:23.000Z,45.00
2019-01-04T23:25:52.040Z,45.87
2019-01-04T23:28:26.220Z,43.97
2019-01-04T23:30:59.344Z,45.80
2019-01-04T23:33:26.916Z,46.20
2019-01-04T23:39:02.533Z,46.10
2019-01-04T23:41:33.645Z,53.10
2019-01-04T23:44:03.123Z,47.23
2019-01-04T23:46:49.500Z,46.10
2019-01-04T23:49:32.844Z,51.53
2019-01-04T23:52:06.076Z,83.53
2019-01-04T23:54:36.316Z,171.80
2019-01-04T23:57:20.697Z,87.83
2019-01-04T23:59:53.857Z,60.20
